Time;durP1;ratioP1;P1;durP2;ratioP2;P2;SDS_P1;SDS_P2;PMS_P1;PMS_P2;Temp;Humidity;BMP_temperature;BMP_pressure;BME280_temperature;BME280_humidity;BME280_pressure;Samples;Min_cycle;Max_cycle;Signal;HPM_P1;HPM_P2
2024/02/06 00:00:59;;;;;;;17.40;6.80;;;;;;;8.83;100.00;98037.80;137459;1274;22620;-80
2024/02/06 00:04:16;;;;;;;26.40;7.20;;;;;;;8.82;100.00;98039.36;137486;1270;22158;-80
2024/02/06 00:07:20;;;;;;;23.10;8.50;;;;;;;8.83;100.00;98045.44;137496;1274;22107;-79
2024/02/06 00:10:22;;;;;;;17.40;7.30;;;;;;;8.84;100.00;98047.01;137490;1274;22130;-79
2024/02/06 00:13:25;;;;;;;18.90;7.00;;;;;;;8.83;100.00;98045.09;137527;1274;22082;-81
2024/02/06 00:16:26;;;;;;;23.60;7.50;;;;;;;8.84;100.00;98051.34;137479;1274;22102;-80
2024/02/06 00:19:30;;;;;;;24.10;7.20;;;;;;;8.84;100.00;98045.10;137486;1274;22602;-80
2024/02/06 00:22:32;;;;;;;24.80;7.20;;;;;;;8.83;100.00;98046.30;137439;1274;22212;-80
2024/02/06 00:25:33;;;;;;;17.90;7.50;;;;;;;8.84;100.00;98044.05;137454;1274;22387;-81
2024/02/06 00:28:34;;;;;;;20.40;7.00;;;;;;;8.85;100.00;98042.33;137446;1274;22639;-80
2024/02/06 00:31:35;;;;;;;18.00;6.40;;;;;;;8.85;100.00;98040.25;137452;1269;22119;-81
2024/02/06 00:34:36;;;;;;;24.90;8.50;;;;;;;8.88;100.00;98033.84;137437;1274;22093;-80
2024/02/06 00:37:37;;;;;;;21.80;6.70;;;;;;;8.87;100.00;98028.80;137461;1274;22172;-79
2024/02/06 00:40:38;;;;;;;17.50;7.30;;;;;;;8.88;100.00;98035.40;137466;1274;22118;-78
2024/02/06 00:43:39;;;;;;;16.80;6.40;;;;;;;8.91;100.00;98040.63;137459;1274;22277;-81
2024/02/06 00:46:40;;;;;;;19.90;7.00;;;;;;;8.94;100.00;98037.35;137452;1274;22614;-79
2024/02/06 00:49:42;;;;;;;21.00;6.00;;;;;;;8.97;100.00;98038.23;137487;1274;22531;-79
2024/02/06 00:52:43;;;;;;;26.70;6.40;;;;;;;8.96;100.00;98032.66;137480;1274;22514;-80
2024/02/06 00:55:44;;;;;;;14.70;5.70;;;;;;;8.93;100.00;98030.75;137464;1274;22497;-79
2024/02/06 00:58:45;;;;;;;17.60;6.20;;;;;;;8.92;100.00;98031.95;137499;1274;22111;-80
2024/02/06 01:01:47;;;;;;;19.60;6.00;;;;;;;8.94;100.00;98026.24;137503;1274;22252;-80
2024/02/06 01:04:48;;;;;;;18.80;6.20;;;;;;;8.97;100.00;98029.55;137488;1274;22057;-80
2024/02/06 01:07:49;;;;;;;22.50;6.60;;;;;;;8.96;100.00;98027.98;137478;1274;22288;-80
2024/02/06 01:10:50;;;;;;;18.10;6.20;;;;;;;8.95;100.00;98020.34;137504;1274;22248;-80
2024/02/06 01:13:52;;;;;;;17.70;6.60;;;;;;;8.96;100.00;98017.58;137482;1274;22120;-80
2024/02/06 01:16:53;;;;;;;19.40;6.50;;;;;;;8.97;100.00;98019.65;137489;1274;22143;-80
2024/02/06 01:19:55;;;;;;;15.80;6.00;;;;;;;8.98;100.00;98019.83;137499;1267;22316;-79
2024/02/06 01:22:56;;;;;;;20.90;6.30;;;;;;;8.98;100.00;98017.23;137501;1274;22145;-79
2024/02/06 01:25:57;;;;;;;16.80;6.50;;;;;;;8.98;100.00;98023.65;137496;1269;22408;-78
2024/02/06 01:28:58;;;;;;;13.70;6.30;;;;;;;8.98;100.00;98018.27;137478;1274;22188;-80
2024/02/06 01:31:59;;;;;;;17.60;6.60;;;;;;;8.98;100.00;98018.27;137479;1274;22191;-80
2024/02/06 01:35:00;;;;;;;13.70;6.10;;;;;;;8.99;100.00;98013.23;137540;1268;22164;-79
2024/02/06 01:38:01;;;;;;;12.80;6.00;;;;;;;8.98;100.00;98012.90;137667;1274;22078;-80
2024/02/06 01:41:03;;;;;;;19.90;6.30;;;;;;;9.01;100.00;98009.61;137681;1274;22153;-80
2024/02/06 01:44:05;;;;;;;20.90;7.50;;;;;;;9.02;100.00;98010.48;137651;1270;22119;-79
2024/02/06 01:47:06;;;;;;;20.30;6.40;;;;;;;9.04;100.00;98015.70;137712;1274;22073;-79
2024/02/06 01:50:07;;;;;;;11.80;5.40;;;;;;;9.03;100.00;98010.66;137635;1274;22426;-79
2024/02/06 01:53:08;;;;;;;18.10;5.60;;;;;;;9.01;100.00;98002.33;137700;1274;22080;-80
2024/02/06 01:56:09;;;;;;;13.60;6.10;;;;;;;9.01;100.00;98004.75;137514;1274;22071;-79
2024/02/06 01:59:10;;;;;;;15.00;5.90;;;;;;;9.01;100.00;98003.71;137506;1274;22302;-80
2024/02/06 02:02:12;;;;;;;13.00;6.00;;;;;;;9.00;100.00;98001.80;137506;1274;22183;-80
2024/02/06 02:05:13;;;;;;;17.40;6.30;;;;;;;8.98;100.00;98004.56;137499;1274;22080;-80
2024/02/06 02:08:14;;;;;;;11.90;6.00;;;;;;;8.97;100.00;98002.30;137489;1274;22705;-79
2024/02/06 02:11:15;;;;;;;17.60;6.20;;;;;;;8.94;100.00;98011.32;137547;1274;22090;-80
2024/02/06 02:14:16;;;;;;;14.80;5.90;;;;;;;8.96;100.00;98005.42;137507;1274;22123;-79
2024/02/06 02:17:17;;;;;;;18.80;5.90;;;;;;;8.96;100.00;98008.89;137496;1274;22105;-79
2024/02/06 02:20:19;;;;;;;17.00;6.20;;;;;;;8.97;100.00;98005.61;137467;1274;22116;-79
2024/02/06 02:23:20;;;;;;;20.90;6.20;;;;;;;8.98;100.00;98002.48;137505;1274;22046;-80
2024/02/06 02:26:21;;;;;;;16.70;6.20;;;;;;;8.99;100.00;98002.49;137522;1274;22082;-80
2024/02/06 02:29:22;;;;;;;16.00;6.60;;;;;;;8.99;100.00;98001.27;137509;1274;22041;-81
2024/02/06 02:32:23;;;;;;;21.40;5.80;;;;;;;8.98;100.00;98008.04;137490;1274;22109;-80
2024/02/06 02:35:24;;;;;;;16.80;6.30;;;;;;;8.94;100.00;98000.90;137525;1274;22107;-80
2024/02/06 02:38:26;;;;;;;18.80;6.60;;;;;;;8.92;100.00;98002.63;137510;1274;22121;-79
2024/02/06 02:41:27;;;;;;;15.60;6.10;;;;;;;8.92;100.00;98005.59;137491;1259;22085;-81
2024/02/06 02:44:28;;;;;;;16.10;6.00;;;;;;;8.93;100.00;98000.20;137580;1274;22160;-81
2024/02/06 02:47:29;;;;;;;16.70;6.00;;;;;;;8.95;100.00;98002.13;137571;1274;22818;-81
2024/02/06 02:50:30;;;;;;;18.00;5.70;;;;;;;8.93;100.00;98010.79;137585;1274;22131;-81
2024/02/06 02:53:31;;;;;;;18.70;7.30;;;;;;;8.92;100.00;98004.55;137553;1274;22267;-82
2024/02/06 02:56:32;;;;;;;16.80;5.90;;;;;;;8.91;100.00;98010.08;137531;1274;22184;-82
2024/02/06 02:59:34;;;;;;;18.30;6.10;;;;;;;8.91;100.00;98003.33;137573;1274;22264;-82
2024/02/06 03:02:35;;;;;;;17.10;6.40;;;;;;;8.91;100.00;98012.86;137584;1274;22684;-82
2024/02/06 03:05:36;;;;;;;15.70;5.80;;;;;;;8.89;100.00;98008.68;137576;1274;22160;-82
2024/02/06 03:08:37;;;;;;;14.30;5.90;;;;;;;8.86;100.00;98009.02;137578;1274;22110;-84
2024/02/06 03:11:38;;;;;;;14.70;6.50;;;;;;;8.84;100.00;98000.68;137571;1274;22092;-85
2024/02/06 03:14:40;;;;;;;17.60;6.00;;;;;;;8.83;100.00;98006.92;137527;1274;22163;-84
2024/02/06 03:17:41;;;;;;;16.80;5.90;;;;;;;8.83;100.00;98009.87;137560;1273;22023;-85
2024/02/06 03:20:42;;;;;;;17.40;6.80;;;;;;;8.80;100.00;98007.26;137557;1274;22045;-85
2024/02/06 03:23:48;;;;;;;14.00;6.00;;;;;;;8.78;100.00;98008.63;137570;1274;22670;-84
2024/02/06 03:26:49;;;;;;;21.40;6.10;;;;;;;8.76;100.00;98011.57;137576;1274;22489;-84
2024/02/06 03:29:50;;;;;;;22.40;6.20;;;;;;;8.74;100.00;98010.33;137534;1274;22057;-82
2024/02/06 03:32:51;;;;;;;14.10;6.00;;;;;;;8.73;100.00;98011.20;137475;1274;22533;-81
2024/02/06 03:35:52;;;;;;;22.20;6.60;;;;;;;8.73;100.00;98016.58;137493;1268;22168;-81
2024/02/06 03:38:53;;;;;;;18.70;6.20;;;;;;;8.72;100.00;98016.41;137559;1274;22044;-82
2024/02/06 03:41:54;;;;;;;12.20;5.30;;;;;;;8.70;100.00;98018.98;137522;1274;22181;-85
2024/02/06 03:44:56;;;;;;;18.90;5.80;;;;;;;8.67;100.00;98020.52;137496;1273;22118;-85
2024/02/06 03:47:57;;;;;;;19.30;6.50;;;;;;;8.64;100.00;98020.83;137517;1274;22200;-84
2024/02/06 03:51:01;;;;;;;18.70;6.30;;;;;;;8.61;100.00;98022.36;137522;1274;22254;-84
2024/02/06 03:54:02;;;;;;;18.60;6.00;;;;;;;8.58;100.00;98018.71;137528;1274;22032;-85
2024/02/06 03:57:06;;;;;;;11.20;5.50;;;;;;;8.57;100.00;98018.18;137529;1274;22254;-85
2024/02/06 04:00:08;;;;;;;15.50;6.00;;;;;;;8.56;100.00;98018.70;137527;1273;22160;-84
2024/02/06 04:03:09;;;;;;;16.20;6.10;;;;;;;8.55;100.00;98020.42;137546;1274;22153;-84
2024/02/06 04:06:10;;;;;;;17.50;6.50;;;;;;;8.53;100.00;98022.84;137493;1274;22156;-83
2024/02/06 04:09:11;;;;;;;15.30;5.90;;;;;;;8.51;100.00;98022.30;137522;1269;22196;-83
2024/02/06 04:12:13;;;;;;;20.80;6.70;;;;;;;8.49;100.00;98023.67;137505;1274;22180;-84
2024/02/06 04:15:14;;;;;;;17.80;5.90;;;;;;;8.49;100.00;98031.48;137559;1262;22216;-84
2024/02/06 04:18:15;;;;;;;11.90;5.90;;;;;;;8.48;100.00;98024.54;137533;1274;22386;-84
2024/02/06 04:21:19;;;;;;;25.90;7.10;;;;;;;8.46;100.00;98024.87;137563;1274;22327;-86
2024/02/06 04:24:21;;;;;;;17.90;6.70;;;;;;;8.44;100.00;98021.56;137545;1274;22142;-84
2024/02/06 04:27:25;;;;;;;21.20;7.90;;;;;;;8.43;100.00;98016.52;137479;1274;22121;-85
2024/02/06 04:30:26;;;;;;;24.80;8.00;;;;;;;8.42;100.00;98012.87;137523;1273;22326;-84
2024/02/06 04:33:27;;;;;;;18.70;7.10;;;;;;;8.40;100.00;98020.31;137479;1274;22131;-84
2024/02/06 04:36:29;;;;;;;20.00;7.70;;;;;;;8.35;100.00;98020.10;137496;1274;22197;-84
2024/02/06 04:39:30;;;;;;;16.10;7.00;;;;;;;8.31;100.00;98019.17;137547;1269;22392;-85
2024/02/06 04:42:31;;;;;;;14.90;7.00;;;;;;;8.45;100.00;98016.71;137597;1274;22117;-83
2024/02/06 04:45:33;;;;;;;17.10;7.00;;;;;;;8.47;100.00;98011.35;137758;1274;22122;-82
2024/02/06 04:48:34;;;;;;;15.70;6.70;;;;;;;8.39;100.00;98007.66;137668;1274;22306;-83
2024/02/06 04:51:36;;;;;;;14.20;6.50;;;;;;;8.32;100.00;97999.09;137617;1274;22227;-83
2024/02/06 04:54:37;;;;;;;14.30;5.90;;;;;;;8.25;100.00;98001.45;137618;1274;22085;-84
2024/02/06 04:57:39;;;;;;;17.70;6.50;;;;;;;8.22;100.00;98001.78;137548;1274;22127;-85
2024/02/06 05:00:40;;;;;;;17.80;6.80;;;;;;;8.20;100.00;97997.61;137475;1271;22611;-84
2024/02/06 05:03:44;;;;;;;22.80;6.70;;;;;;;8.20;100.00;97998.48;137456;1274;22069;-84
2024/02/06 05:06:47;;;;;;;13.80;6.00;;;;;;;8.20;100.00;98000.90;137470;1274;22116;-85
2024/02/06 05:09:48;;;;;;;19.40;6.20;;;;;;;8.19;100.00;98005.73;137421;1274;22261;-85
2024/02/06 05:12:50;;;;;;;17.40;6.20;;;;;;;8.19;100.00;98003.83;137474;1274;22115;-84
2024/02/06 05:15:51;;;;;;;16.40;6.30;;;;;;;8.18;100.00;98003.14;137455;1274;22148;-84
2024/02/06 05:18:52;;;;;;;17.00;5.90;;;;;;;8.16;100.00;97997.74;137441;1274;22136;-84
2024/02/06 05:21:54;;;;;;;14.90;6.20;;;;;;;8.14;100.00;97995.14;137447;1274;22580;-84
2024/02/06 05:24:55;;;;;;;18.00;6.30;;;;;;;8.29;100.00;97992.30;137394;1270;22075;-83
2024/02/06 05:27:58;;;;;;;17.80;7.20;;;;;;;8.63;100.00;98000.02;137412;1274;22096;-83
2024/02/06 05:30:59;;;;;;;21.60;7.00;;;;;;;8.48;100.00;98002.16;137416;1274;22095;-83
2024/02/06 05:34:00;;;;;;;19.90;6.70;;;;;;;8.33;100.00;98004.65;137413;1270;22227;-85
2024/02/06 05:37:02;;;;;;;15.40;6.50;;;;;;;8.22;100.00;98003.34;137369;1274;22150;-84
2024/02/06 05:40:06;;;;;;;21.80;6.90;;;;;;;8.13;100.00;98010.71;137516;1274;22111;-84
2024/02/06 05:43:07;;;;;;;11.30;6.60;;;;;;;8.05;100.00;98010.48;137493;1274;22125;-84
2024/02/06 05:46:08;;;;;;;13.20;6.30;;;;;;;7.96;100.00;98008.15;137490;1259;22262;-85
2024/02/06 05:49:11;;;;;;;19.10;6.60;;;;;;;7.86;100.00;98003.21;137507;1274;22295;-84
2024/02/06 05:52:12;;;;;;;20.40;8.60;;;;;;;7.78;100.00;98002.42;137480;1274;22129;-85
2024/02/06 05:55:14;;;;;;;16.90;8.30;;;;;;;7.71;100.00;98001.83;134791;1274;3465178;-85
2024/02/06 05:58:16;;;;;;;17.50;8.20;;;;;;;7.63;100.00;98002.61;137507;1274;22126;-85
2024/02/06 06:01:18;;;;;;;21.20;7.00;;;;;;;7.57;100.00;98008.09;137448;1274;22151;-84
2024/02/06 06:04:19;;;;;;;14.20;7.20;;;;;;;7.48;100.00;98005.05;137439;1274;22524;-79
2024/02/06 06:07:21;;;;;;;21.10;8.00;;;;;;;7.42;100.00;98005.34;137405;1274;22589;-74
2024/02/06 06:10:22;;;;;;;20.70;7.70;;;;;;;7.37;100.00;98009.26;137384;1274;22164;-75
2024/02/06 06:13:23;;;;;;;19.40;7.20;;;;;;;7.32;100.00;97998.14;137374;1274;22093;-78
2024/02/06 06:16:24;;;;;;;26.40;8.20;;;;;;;7.28;100.00;97994.98;137492;1269;22631;-84
2024/02/06 06:19:25;;;;;;;20.60;8.00;;;;;;;7.24;100.00;98000.29;137514;1274;22131;-83
2024/02/06 06:22:26;;;;;;;26.20;8.50;;;;;;;7.39;100.00;97994.91;137474;1274;22122;-80
2024/02/06 06:25:27;;;;;;;22.70;7.60;;;;;;;8.36;100.00;97992.19;137463;1274;22581;-81
2024/02/06 06:28:29;;;;;;;22.60;8.20;;;;;;;9.55;100.00;97987.23;137476;1274;22809;-80
2024/02/06 06:31:30;;;;;;;14.50;7.70;;;;;;;10.55;100.00;97989.92;137451;1274;22246;-79
2024/02/06 06:34:31;;;;;;;22.30;8.20;;;;;;;11.00;100.00;97989.30;137434;1274;22752;-81
2024/02/06 06:37:32;;;;;;;27.00;7.80;;;;;;;11.05;100.00;97988.42;137371;1274;22580;-81
2024/02/06 06:40:33;;;;;;;26.40;7.50;;;;;;;11.59;100.00;97997.27;137395;1274;22113;-80
2024/02/06 06:43:35;;;;;;;26.70;7.90;;;;;;;12.05;100.00;97998.38;137435;1274;23049;-80
2024/02/06 06:46:36;;;;;;;22.00;7.30;;;;;;;12.12;100.00;98002.70;137456;1274;22587;-82
2024/02/06 06:49:37;;;;;;;24.90;8.10;;;;;;;11.25;100.00;98008.37;137528;1274;22114;-82
2024/02/06 06:52:38;;;;;;;20.80;9.60;;;;;;;10.14;100.00;98005.76;137487;1274;22600;-81
2024/02/06 06:55:40;;;;;;;25.80;11.00;;;;;;;9.77;100.00;98009.37;137467;1274;22107;-82
2024/02/06 06:58:41;;;;;;;27.90;11.30;;;;;;;9.51;100.00;98009.11;137444;1274;22671;-82
2024/02/06 07:01:45;;;;;;;23.50;7.60;;;;;;;9.30;100.00;98003.83;137474;1274;22315;-84
2024/02/06 07:04:46;;;;;;;19.90;8.50;;;;;;;9.16;100.00;98004.48;137482;1274;22546;-82
2024/02/06 07:07:47;;;;;;;26.30;8.80;;;;;;;9.09;100.00;98008.44;137465;1274;22143;-82
2024/02/06 07:10:48;;;;;;;26.40;8.80;;;;;;;8.92;100.00;98003.84;137468;1274;22814;-84
2024/02/06 07:13:49;;;;;;;21.60;9.50;;;;;;;8.92;100.00;98006.44;137455;1274;22375;-83
2024/02/06 07:16:51;;;;;;;23.10;8.20;;;;;;;9.05;100.00;98005.98;137427;1274;22502;-83
2024/02/06 07:19:52;;;;;;;26.40;8.90;;;;;;;9.01;100.00;98003.71;137422;1274;22092;-83
2024/02/06 07:22:54;;;;;;;27.80;9.40;;;;;;;8.99;100.00;98005.09;137460;1274;22122;-82
2024/02/06 07:25:55;;;;;;;25.80;8.90;;;;;;;8.96;100.00;98001.09;137450;1274;22074;-85
2024/02/06 07:28:56;;;;;;;21.00;9.10;;;;;;;8.92;100.00;98002.46;137461;1274;22122;-83
2024/02/06 07:31:57;;;;;;;15.50;8.40;;;;;;;8.84;100.00;97996.00;137454;1274;22314;-84
2024/02/06 07:35:00;;;;;;;23.00;8.20;;;;;;;8.74;100.00;97996.80;137487;1274;22088;-83
2024/02/06 07:38:01;;;;;;;15.90;8.40;;;;;;;8.78;100.00;97994.23;137472;1274;22111;-83
2024/02/06 07:41:03;;;;;;;23.70;9.50;;;;;;;9.05;100.00;97994.54;137492;1274;22111;-84
2024/02/06 07:44:05;;;;;;;27.20;7.60;;;;;;;9.12;100.00;97995.77;137505;1274;22149;-83
2024/02/06 07:47:06;;;;;;;26.70;7.60;;;;;;;9.10;100.00;97995.07;137623;1274;22119;-80
2024/02/06 07:50:08;;;;;;;16.70;7.30;;;;;;;9.09;100.00;97997.33;137594;1274;22077;-81
2024/02/06 07:53:09;;;;;;;23.30;9.00;;;;;;;9.00;100.00;97997.12;137633;1271;22160;-82
2024/02/06 07:56:10;;;;;;;22.80;8.20;;;;;;;9.08;100.00;97998.54;137553;1272;22121;-83
2024/02/06 07:59:14;;;;;;;14.70;7.20;;;;;;;9.02;100.00;98005.45;137618;1274;22621;-83
2024/02/06 08:02:15;;;;;;;28.50;7.80;;;;;;;8.91;100.00;98009.91;137623;1274;22218;-83
2024/02/06 08:05:17;;;;;;;18.90;7.30;;;;;;;8.81;100.00;98006.91;137455;1274;22141;-84
2024/02/06 08:08:18;;;;;;;23.20;7.60;;;;;;;8.78;100.00;98005.51;137480;1274;22133;-84
2024/02/06 08:11:24;;;;;;;14.70;6.50;;;;;;;8.88;100.00;98014.07;137445;1274;22159;-85
2024/02/06 08:14:26;;;;;;;16.50;6.70;;;;;;;8.95;100.00;98015.66;137489;1274;22133;-85
2024/02/06 08:17:27;;;;;;;18.90;7.90;;;;;;;8.86;100.00;98021.52;137472;1274;22127;-83
2024/02/06 08:20:28;;;;;;;20.90;7.90;;;;;;;8.84;100.00;98021.67;137461;1274;22088;-84
2024/02/06 08:23:29;;;;;;;17.40;6.80;;;;;;;8.91;100.00;98030.73;137486;1274;22346;-84
2024/02/06 08:26:30;;;;;;;15.20;7.00;;;;;;;8.90;100.00;98032.29;137486;1274;22098;-81
2024/02/06 08:29:31;;;;;;;19.80;7.20;;;;;;;8.86;100.00;98034.35;137441;1274;22067;-83
2024/02/06 08:32:32;;;;;;;16.40;7.10;;;;;;;8.90;100.00;98031.42;137481;1274;22150;-83
2024/02/06 08:35:34;;;;;;;16.40;6.50;;;;;;;8.90;100.00;98030.90;137471;1274;22745;-83
2024/02/06 08:38:36;;;;;;;16.90;7.20;;;;;;;9.14;100.00;98032.06;137484;1274;22187;-84
2024/02/06 08:41:37;;;;;;;18.00;6.90;;;;;;;9.23;100.00;98033.31;137522;1274;22551;-84
2024/02/06 08:44:38;;;;;;;23.10;7.20;;;;;;;9.18;100.00;98032.77;137522;1274;22113;-85
2024/02/06 08:47:39;;;;;;;13.90;5.50;;;;;;;9.21;100.00;98038.52;137473;1274;22185;-83
2024/02/06 08:50:42;;;;;;;17.00;6.90;;;;;;;9.31;100.00;98035.77;137515;1263;22108;-84
2024/02/06 08:53:44;;;;;;;17.70;6.50;;;;;;;9.36;100.00;98033.20;137412;1274;22720;-83
2024/02/06 08:56:45;;;;;;;14.50;5.50;;;;;;;9.32;100.00;98032.66;137173;1274;22149;-85
2024/02/06 08:59:46;;;;;;;26.80;7.30;;;;;;;9.44;100.00;98026.79;137482;1274;22843;-81
2024/02/06 09:02:47;;;;;;;22.40;7.20;;;;;;;9.50;100.00;98027.69;137457;1274;22376;-84
2024/02/06 09:05:50;;;;;;;15.90;6.50;;;;;;;9.72;100.00;98028.13;137405;1274;22105;-78
2024/02/06 09:08:53;;;;;;;13.80;7.00;;;;;;;9.98;100.00;98028.34;137371;1274;22074;-77
2024/02/06 09:11:54;;;;;;;13.80;6.50;;;;;;;10.18;100.00;98025.59;137375;1274;22187;-77
2024/02/06 09:14:56;;;;;;;18.10;6.00;;;;;;;10.21;100.00;98019.52;137389;1266;22089;-77
2024/02/06 09:17:58;;;;;;;15.60;6.10;;;;;;;10.26;100.00;98022.30;137353;1274;22144;-78
2024/02/06 09:21:00;;;;;;;20.50;8.60;;;;;;;10.23;100.00;98025.26;137345;1274;22143;-77
2024/02/06 09:24:02;;;;;;;26.60;6.80;;;;;;;10.33;100.00;98026.83;137301;1274;22132;-77
2024/02/06 09:27:03;;;;;;;13.20;5.90;;;;;;;10.47;100.00;98029.28;137268;1274;22159;-76
2024/02/06 09:30:04;;;;;;;17.90;6.10;;;;;;;10.41;100.00;98031.02;137265;1274;22161;-77
2024/02/06 09:33:05;;;;;;;17.80;5.50;;;;;;;10.20;100.00;98026.27;137242;1274;22116;-75
2024/02/06 09:36:06;;;;;;;14.40;5.30;;;;;;;10.12;100.00;98028.34;137281;1274;22218;-75
2024/02/06 09:39:09;;;;;;;16.10;5.30;;;;;;;9.95;100.00;98018.42;137314;1274;22560;-74
2024/02/06 09:42:10;;;;;;;16.70;5.70;;;;;;;10.06;100.00;98023.65;137314;1274;22525;-74
2024/02/06 09:45:12;;;;;;;12.70;5.20;;;;;;;9.96;100.00;98026.08;137302;1274;22107;-75
2024/02/06 09:48:13;;;;;;;19.10;5.40;;;;;;;9.87;100.00;98029.89;137323;1274;22484;-75
2024/02/06 09:51:14;;;;;;;13.40;4.80;;;;;;;9.78;100.00;98027.61;137331;1274;22467;-76
2024/02/06 09:54:15;;;;;;;16.80;6.00;;;;;;;9.73;100.00;98028.12;137338;1271;22206;-74
2024/02/06 09:57:21;;;;;;;13.70;5.80;;;;;;;9.74;100.00;98031.60;137348;1274;22094;-75
2024/02/06 10:00:23;;;;;;;15.30;6.40;;;;;;;9.85;100.00;98029.19;137353;1274;22094;-76
2024/02/06 10:03:24;;;;;;;14.30;4.80;;;;;;;9.87;100.00;98031.10;137372;1263;22151;-75
2024/02/06 10:06:26;;;;;;;14.30;4.80;;;;;;;9.88;100.00;98030.59;137379;1274;22141;-75
2024/02/06 10:09:27;;;;;;;11.40;4.10;;;;;;;10.00;100.00;98033.38;137389;1271;22101;-76
2024/02/06 10:12:30;;;;;;;12.50;5.20;;;;;;;10.01;100.00;98034.59;137391;1274;22693;-75
2024/02/06 10:15:32;;;;;;;9.10;4.70;;;;;;;9.94;100.00;98026.77;137363;1262;21881;-76
2024/02/06 10:18:33;;;;;;;9.70;4.50;;;;;;;9.95;100.00;98033.73;137355;1274;22699;-76
2024/02/06 10:21:34;;;;;;;19.30;4.20;;;;;;;9.83;100.00;98031.44;137293;1274;22224;-76
2024/02/06 10:24:36;;;;;;;16.00;4.60;;;;;;;9.61;100.00;98034.52;137321;1274;22111;-73
2024/02/06 10:27:37;;;;;;;11.20;5.00;;;;;;;9.45;100.00;98029.92;137280;1274;22283;-75
2024/02/06 10:30:38;;;;;;;13.10;4.90;;;;;;;9.60;100.00;98020.27;137326;1274;22195;-75
2024/02/06 10:33:39;;;;;;;11.80;4.30;;;;;;;9.82;100.00;98026.05;137347;1274;22636;-75
2024/02/06 10:36:40;;;;;;;18.30;4.40;;;;;;;9.79;100.00;98022.73;137379;1274;22116;-75
2024/02/06 10:39:42;;;;;;;11.30;4.60;;;;;;;9.66;100.00;98028.80;137354;1274;22230;-75
2024/02/06 10:42:43;;;;;;;15.40;4.50;;;;;;;9.63;100.00;98023.76;137399;1274;22574;-75
2024/02/06 10:45:44;;;;;;;12.50;4.80;;;;;;;9.49;100.00;98023.00;137546;1274;22320;-75
2024/02/06 10:48:45;;;;;;;7.70;4.20;;;;;;;9.63;100.00;98013.84;137607;1274;22132;-73
2024/02/06 10:51:49;;;;;;;12.10;4.90;;;;;;;9.79;100.00;98009.19;137554;1274;22184;-74
2024/02/06 10:54:50;;;;;;;15.00;4.20;;;;;;;9.82;100.00;98006.59;137555;1274;22266;-76
2024/02/06 10:57:53;;;;;;;14.60;5.20;;;;;;;9.89;100.00;97998.77;137457;1274;22097;-75
2024/02/06 11:00:54;;;;;;;10.20;3.60;;;;;;;10.03;100.00;98005.23;137500;1274;22224;-75
2024/02/06 11:03:56;;;;;;;16.00;4.20;;;;;;;10.01;100.00;97997.05;137391;1274;22114;-75
2024/02/06 11:07:02;;;;;;;10.10;4.10;;;;;;;10.04;100.00;97997.58;137397;1274;22138;-75
2024/02/06 11:10:04;;;;;;;10.10;4.10;;;;;;;9.93;100.00;97987.66;137413;1274;22152;-75
2024/02/06 11:13:05;;;;;;;14.80;4.20;;;;;;;10.21;100.00;97993.07;137394;1274;22243;-75
2024/02/06 11:16:06;;;;;;;12.20;4.60;;;;;;;10.54;100.00;97988.56;137438;1262;22227;-77
2024/02/06 11:19:08;;;;;;;8.30;4.60;;;;;;;10.68;100.00;97989.06;137365;1274;22127;-74
2024/02/06 11:22:09;;;;;;;15.20;4.10;;;;;;;10.64;100.00;97993.08;137385;1274;22135;-75
2024/02/06 11:25:10;;;;;;;13.00;4.30;;;;;;;10.61;100.00;97984.89;137357;1274;22112;-74
2024/02/06 11:28:11;;;;;;;10.70;3.80;;;;;;;10.68;100.00;97984.71;137340;1274;22519;-74
2024/02/06 11:31:12;;;;;;;10.20;3.80;;;;;;;10.53;100.00;97988.05;137360;1274;23063;-73
2024/02/06 11:34:13;;;;;;;13.00;3.80;;;;;;;10.40;100.00;97989.61;137336;1274;22557;-74
2024/02/06 11:37:15;;;;;;;7.70;3.10;;;;;;;10.37;100.00;97986.81;137341;1274;22129;-75
2024/02/06 11:40:16;;;;;;;19.30;4.80;;;;;;;10.39;100.00;97983.34;137391;1274;22124;-75
2024/02/06 11:43:17;;;;;;;10.70;3.90;;;;;;;10.36;100.00;97979.17;137363;1274;22175;-76
2024/02/06 11:46:22;;;;;;;10.30;3.80;;;;;;;10.40;100.00;97973.09;137358;1274;22754;-77
2024/02/06 11:49:23;;;;;;;10.70;3.30;;;;;;;10.57;100.00;97975.69;137334;1274;22116;-75
2024/02/06 11:52:24;;;;;;;7.80;3.30;;;;;;;10.68;100.00;97973.23;137338;1274;22228;-76
2024/02/06 11:55:26;;;;;;;6.10;2.80;;;;;;;10.58;100.00;97970.98;137382;1274;22309;-76
2024/02/06 11:58:27;;;;;;;10.20;3.70;;;;;;;10.41;100.00;97971.52;137402;1274;22133;-76
2024/02/06 12:01:29;;;;;;;11.50;3.30;;;;;;;10.32;100.00;97967.17;137366;1274;22101;-76
2024/02/06 12:04:30;;;;;;;6.20;3.10;;;;;;;10.31;100.00;97963.00;137370;1274;22288;-75
2024/02/06 12:07:31;;;;;;;8.50;3.70;;;;;;;10.24;100.00;97957.95;137347;1274;22282;-76
2024/02/06 12:10:33;;;;;;;11.40;4.30;;;;;;;10.12;100.00;97961.77;137364;1274;22170;-75
2024/02/06 12:13:34;;;;;;;9.40;3.30;;;;;;;9.92;100.00;97964.72;137374;1274;22135;-75
2024/02/06 12:16:35;;;;;;;11.10;4.20;;;;;;;9.81;100.00;97959.33;137349;1274;22254;-76
2024/02/06 12:19:36;;;;;;;9.60;3.60;;;;;;;9.86;100.00;97955.33;137399;1274;22089;-76
2024/02/06 12:22:37;;;;;;;10.90;3.80;;;;;;;9.75;100.00;97960.19;137329;1274;22108;-76
2024/02/06 12:25:39;;;;;;;13.00;3.70;;;;;;;9.64;100.00;97954.62;137354;1270;22117;-74
2024/02/06 12:28:42;;;;;;;10.80;4.10;;;;;;;9.49;100.00;97955.77;137358;1274;22598;-75
2024/02/06 12:31:43;;;;;;;11.70;3.80;;;;;;;9.39;100.00;97958.36;137396;1274;22099;-76
2024/02/06 12:34:44;;;;;;;10.30;3.90;;;;;;;9.48;100.00;97954.39;137404;1274;22876;-74
2024/02/06 12:37:47;;;;;;;6.60;3.30;;;;;;;9.55;100.00;97958.77;137371;1274;22126;-76
2024/02/06 12:40:48;;;;;;;13.50;4.00;;;;;;;9.32;100.00;97954.70;137439;1275;22151;-75
2024/02/06 12:43:50;;;;;;;9.70;4.00;;;;;;;9.29;100.00;97951.39;137344;1278;21945;-75
2024/02/06 12:46:51;;;;;;;10.10;3.90;;;;;;;9.24;100.00;97948.25;137298;1278;22107;-75
2024/02/06 12:49:52;;;;;;;10.70;3.70;;;;;;;9.24;100.00;97946.70;137290;1278;22157;-75
2024/02/06 12:52:53;;;;;;;13.20;3.70;;;;;;;9.12;100.00;97942.84;137235;1278;22073;-76
2024/02/06 12:55:55;;;;;;;9.50;3.50;;;;;;;8.96;100.00;97934.80;137242;1278;22467;-75
2024/02/06 12:58:56;;;;;;;8.00;3.50;;;;;;;8.87;100.00;97927.48;137148;1278;22220;-77
2024/02/06 13:01:57;;;;;;;7.80;3.30;;;;;;;8.80;100.00;97925.55;136853;1278;22130;-76
2024/02/06 13:04:58;;;;;;;7.60;3.60;;;;;;;8.74;100.00;97929.34;137088;1278;22640;-76
2024/02/06 13:07:59;;;;;;;13.10;4.20;;;;;;;8.70;100.00;97931.23;137147;1278;22207;-76
2024/02/06 13:11:01;;;;;;;12.70;3.70;;;;;;;8.65;100.00;97925.96;137028;1278;22171;-75
2024/02/06 13:14:02;;;;;;;10.20;3.40;;;;;;;8.61;100.00;97923.52;136983;1278;22566;-75
2024/02/06 13:17:03;;;;;;;29.60;4.20;;;;;;;8.59;100.00;97921.95;137007;1278;22081;-76
2024/02/06 13:20:05;;;;;;;10.20;3.70;;;;;;;8.60;100.00;97922.48;136968;1278;22082;-76
2024/02/06 13:23:06;;;;;;;12.30;4.00;;;;;;;8.59;100.00;97922.64;137017;1278;22086;-75
2024/02/06 13:26:08;;;;;;;8.50;4.20;;;;;;;8.58;100.00;97925.06;136961;1278;23092;-76
2024/02/06 13:29:09;;;;;;;17.90;4.70;;;;;;;8.60;100.00;97917.27;136981;1278;22183;-76
2024/02/06 13:32:11;;;;;;;14.20;4.70;;;;;;;8.59;100.00;97914.49;136938;1278;22090;-76
2024/02/06 13:35:12;;;;;;;16.80;5.40;;;;;;;8.60;100.00;97913.45;136924;1278;22125;-76
2024/02/06 13:38:13;;;;;;;15.00;4.90;;;;;;;8.58;100.00;97915.54;136934;1278;22886;-76
2024/02/06 13:41:14;;;;;;;17.20;5.50;;;;;;;8.56;100.00;97925.91;137029;1278;22439;-75
2024/02/06 13:44:15;;;;;;;20.10;5.90;;;;;;;8.56;100.00;97915.52;137030;1274;22083;-76
2024/02/06 13:47:17;;;;;;;16.80;5.80;;;;;;;8.56;100.00;97916.56;136896;1278;22097;-77
2024/02/06 13:50:20;;;;;;;16.60;6.30;;;;;;;8.53;100.00;97913.77;137054;1278;22085;-76
2024/02/06 13:53:21;;;;;;;8.60;3.60;;;;;;;8.50;100.00;97909.07;137081;1278;22734;-76